Terminal Aerodrome Forecast
Issued by NWS

Home | Current Version | Previous Version | Graphics & Text | Print | Product List | Glossary On
Versions: 1 2 3 4 5 6 7 8 9 10 11 12 13 14
000
FTUS43 KMPX 272326
TAFAXN
TAF
KAXN 272326Z 2800/2824 17016G20KT P6SM VCSH SCT060 BKN110
     FM280500 16012KT 6SM SHRA BR VCTS BKN035CB BKN050
      TEMPO 2805/2809 3SM TSRA BR OVC015CB
     FM281000 17012KT 5SM -SHRA BR SCT007 BKN015
     FM281500 25011KT P6SM SCT012 BKN025
     FM282100 30012KT P6SM BKN060=

USA.gov is the U.S. government's official web portal to all federal, state and local government web resources and services.